Time;durP1;ratioP1;P1;durP2;ratioP2;P2;SDS_P1;SDS_P2;PMS_P1;PMS_P2;Temp;Humidity;BMP_temperature;BMP_pressure;BME280_temperature;BME280_humidity;BME280_pressure;Samples;Min_cycle;Max_cycle;Signal;HPM_P1;HPM_P2
2021/03/23 00:01:37;;;;;;;1999.90;999.90;;;22.80;52.20;;;;;;5073554;28;20164;-57
2021/03/23 00:04:05;;;;;;;1999.90;999.90;;;23.10;50.10;;;;;;5073352;28;20513;-48
2021/03/23 00:06:32;;;;;;;1999.90;999.90;;;23.00;51.70;;;;;;5073510;28;20176;-55
2021/03/23 00:09:01;;;;;;;1999.90;999.90;;;23.00;51.80;;;;;;5073522;28;20183;-48
2021/03/23 00:11:32;;;;;;;1999.90;999.90;;;23.00;51.80;;;;;;5073418;28;20181;-43
2021/03/23 00:14:01;;;;;;;1999.90;999.90;;;23.00;51.90;;;;;;5073343;28;20200;-56
2021/03/23 00:16:31;;;;;;;1999.90;999.90;;;23.00;52.00;;;;;;5073419;28;20222;-46
2021/03/23 00:18:58;;;;;;;1999.90;999.90;;;23.10;51.80;;;;;;5073275;28;20180;-55
2021/03/23 00:21:26;;;;;;;1999.90;999.90;;;23.00;52.50;;;;;;5073208;28;20291;-45
2021/03/23 00:23:54;;;;;;;1999.90;999.90;;;22.90;53.10;;;;;;5073276;28;20230;-56
2021/03/23 00:26:21;;;;;;;1999.90;999.90;;;22.80;53.30;;;;;;5073444;28;20168;-56
2021/03/23 00:28:50;;;;;;;1999.90;999.90;;;22.70;52.90;;;;;;5073288;28;20623;-53
2021/03/23 00:31:23;;;;;;;1999.90;999.90;;;22.60;53.50;;;;;;5073303;28;20188;-57
2021/03/23 00:33:50;;;;;;;1999.90;999.90;;;22.60;53.80;;;;;;5073199;28;20700;-49
2021/03/23 00:36:20;;;;;;;1999.90;999.90;;;22.50;54.00;;;;;;5073225;28;20164;-56
2021/03/23 00:38:47;;;;;;;1999.90;999.90;;;22.50;53.80;;;;;;5073232;28;20218;-52
2021/03/23 00:41:14;;;;;;;1999.90;999.90;;;22.40;53.90;;;;;;5072991;28;20192;-53
2021/03/23 00:43:42;;;;;;;1999.90;999.90;;;22.30;54.50;;;;;;5073055;28;20226;-55
2021/03/23 00:46:09;;;;;;;1999.90;999.90;;;22.30;54.10;;;;;;5072890;28;20187;-52
2021/03/23 00:48:36;;;;;;;1999.90;999.90;;;22.20;55.10;;;;;;5072953;28;20218;-56
2021/03/23 00:51:03;;;;;;;1999.90;999.90;;;22.10;55.20;;;;;;5072991;28;20157;-48
2021/03/23 00:53:30;;;;;;;1999.90;999.90;;;22.10;54.80;;;;;;5072884;28;20176;-52
2021/03/23 00:56:00;;;;;;;1999.90;999.90;;;22.10;55.00;;;;;;5072706;28;20728;-42
2021/03/23 00:58:27;;;;;;;1999.90;999.90;;;22.10;54.60;;;;;;5072881;28;20165;-57
2021/03/23 01:00:54;;;;;;;1999.90;999.90;;;22.10;55.10;;;;;;5072789;28;20200;-43
2021/03/23 01:03:21;;;;;;;1999.90;999.90;;;22.10;54.30;;;;;;5072969;28;20169;-53
2021/03/23 01:05:50;;;;;;;1999.90;999.90;;;22.20;54.20;;;;;;5072763;28;20179;-57
2021/03/23 01:08:17;;;;;;;1999.90;999.90;;;22.20;55.10;;;;;;5072786;28;20168;-55
2021/03/23 01:10:44;;;;;;;1999.90;999.90;;;22.10;55.30;;;;;;5072728;28;20172;-54
2021/03/23 01:13:11;;;;;;;1999.90;999.90;;;22.20;54.70;;;;;;5072734;28;20161;-57
2021/03/23 01:15:38;;;;;;;1999.90;999.90;;;22.10;54.00;;;;;;5073848;28;20168;-56
2021/03/23 01:18:05;;;;;;;1999.90;999.90;;;22.20;53.60;;;;;;5076781;28;20161;-57
2021/03/23 01:20:33;;;;;;;1999.90;999.90;;;22.20;54.10;;;;;;5076679;28;20203;-57
2021/03/23 01:23:00;;;;;;;1999.90;999.90;;;22.20;54.80;;;;;;5076628;28;20208;-55
2021/03/23 01:25:28;;;;;;;1999.90;999.90;;;22.10;54.60;;;;;;5076652;28;20176;-48
2021/03/23 01:27:55;;;;;;;1999.90;999.90;;;22.10;54.90;;;;;;5076631;28;20214;-41
2021/03/23 01:30:25;;;;;;;1999.90;999.90;;;22.10;54.80;;;;;;5076680;28;20172;-55
2021/03/23 01:32:52;;;;;;;1999.90;999.90;;;22.00;54.20;;;;;;5076636;28;20641;-56
2021/03/23 01:35:20;;;;;;;1999.90;999.90;;;22.20;54.70;;;;;;5076460;28;20168;-54
2021/03/23 01:37:47;;;;;;;1999.90;999.90;;;22.10;54.20;;;;;;5076427;28;20195;-46
2021/03/23 01:40:18;;;;;;;1999.90;999.90;;;22.10;54.40;;;;;;5076195;28;20192;-42
2021/03/23 01:42:54;;;;;;;1999.90;999.90;;;22.00;54.60;;;;;;5076338;28;20189;-56
2021/03/23 01:45:28;;;;;;;1999.90;999.90;;;22.00;54.40;;;;;;5076513;28;20156;-52
2021/03/23 01:47:58;;;;;;;1999.90;999.90;;;22.00;54.30;;;;;;5076369;28;20168;-56
2021/03/23 01:50:26;;;;;;;1999.90;999.90;;;22.00;54.70;;;;;;5076359;28;20156;-56
2021/03/23 01:52:59;;;;;;;1999.90;999.90;;;22.00;54.90;;;;;;5076217;28;20176;-48
2021/03/23 01:55:26;;;;;;;1999.90;999.90;;;21.90;55.00;;;;;;5075980;28;20200;-52
2021/03/23 01:57:54;;;;;;;1999.90;999.90;;;21.80;55.10;;;;;;5076204;28;20206;-48
2021/03/23 02:00:22;;;;;;;1999.90;999.90;;;21.80;54.90;;;;;;5075868;28;20258;-41
2021/03/23 02:02:49;;;;;;;1999.90;999.90;;;21.80;55.30;;;;;;5075955;28;20233;-55
2021/03/23 02:05:26;;;;;;;1999.90;999.90;;;21.80;55.70;;;;;;5075903;28;20631;-56
2021/03/23 02:07:55;;;;;;;1999.90;999.90;;;21.80;55.50;;;;;;5075889;28;20235;-55
2021/03/23 02:10:23;;;;;;;1999.90;999.90;;;21.70;55.40;;;;;;5075765;28;20530;-56
2021/03/23 02:12:51;;;;;;;1999.90;999.90;;;21.90;53.40;;;;;;5075651;28;20180;-42
2021/03/23 02:15:23;;;;;;;1999.90;999.90;;;22.10;53.90;;;;;;5075710;28;20171;-55
2021/03/23 02:18:23;;;;;;;1999.90;999.90;;;22.10;54.10;;;;;;5075609;28;20161;-43
2021/03/23 02:20:56;;;;;;;1999.90;999.90;;;22.10;54.10;;;;;;5075428;28;20231;-56
2021/03/23 02:23:26;;;;;;;1999.90;999.90;;;22.10;54.50;;;;;;5075614;28;20186;-56
2021/03/23 02:25:53;;;;;;;1999.90;999.90;;;22.00;55.00;;;;;;5075412;28;20557;-49
2021/03/23 02:28:20;;;;;;;1999.90;999.90;;;21.90;55.40;;;;;;5075396;28;20165;-44
2021/03/23 02:30:50;;;;;;;1999.90;999.90;;;21.90;55.50;;;;;;5075433;28;20204;-50
2021/03/23 02:33:17;;;;;;;1999.90;999.90;;;21.80;56.20;;;;;;5075419;28;20168;-56
2021/03/23 02:35:44;;;;;;;1999.90;999.90;;;21.70;56.40;;;;;;5075374;28;20175;-56
2021/03/23 02:38:11;;;;;;;1999.90;999.90;;;21.60;56.60;;;;;;5075262;28;20168;-54
2021/03/23 02:40:41;;;;;;;1999.90;999.90;;;21.60;56.80;;;;;;5075161;28;20670;-56
2021/03/23 02:43:08;;;;;;;1999.90;999.90;;;21.50;56.90;;;;;;5075191;28;20192;-50
2021/03/23 02:45:35;;;;;;;1999.90;999.90;;;21.50;57.00;;;;;;5075108;28;20262;-44
2021/03/23 02:48:02;;;;;;;1999.90;999.90;;;21.40;57.50;;;;;;5075294;28;20166;-50
2021/03/23 02:50:29;;;;;;;1999.90;999.90;;;21.40;57.70;;;;;;5075156;28;20650;-56
2021/03/23 02:52:55;;;;;;;1999.90;999.90;;;21.30;57.60;;;;;;5075065;28;20195;-56
2021/03/23 02:55:22;;;;;;;1999.90;999.90;;;21.20;58.20;;;;;;5074799;28;20295;-56
2021/03/23 02:57:49;;;;;;;1999.90;999.90;;;21.20;58.60;;;;;;5074971;28;20160;-47
2021/03/23 03:00:17;;;;;;;1999.90;999.90;;;21.10;58.70;;;;;;5074733;28;20215;-53
2021/03/23 03:02:44;;;;;;;1999.90;999.90;;;21.10;58.40;;;;;;5075117;28;20500;-56
2021/03/23 03:05:13;;;;;;;1999.90;999.90;;;21.20;57.30;;;;;;5074865;28;20620;-51
2021/03/23 03:07:39;;;;;;;1999.90;999.90;;;21.20;58.30;;;;;;5074639;28;20189;-43
2021/03/23 03:10:07;;;;;;;1999.90;999.90;;;21.20;58.30;;;;;;5074732;28;20175;-56
2021/03/23 03:12:34;;;;;;;1999.90;999.90;;;21.10;58.40;;;;;;5074723;28;20176;-55
2021/03/23 03:15:01;;;;;;;1999.90;999.90;;;21.10;58.50;;;;;;5074752;28;20165;-55
2021/03/23 03:17:28;;;;;;;1999.90;999.90;;;21.10;58.40;;;;;;5074595;28;20620;-45
2021/03/23 03:19:55;;;;;;;1999.90;999.90;;;21.10;58.40;;;;;;5074354;28;20622;-43
2021/03/23 03:22:21;;;;;;;1999.90;999.90;;;21.00;58.80;;;;;;5074445;28;20165;-55
2021/03/23 03:24:48;;;;;;;1999.90;999.90;;;21.00;58.70;;;;;;5074334;28;20179;-45
2021/03/23 03:27:15;;;;;;;1999.90;999.90;;;21.00;58.90;;;;;;5074344;28;20175;-48
2021/03/23 03:29:42;;;;;;;1999.90;999.90;;;21.00;59.40;;;;;;5074274;28;20160;-47
2021/03/23 03:32:09;;;;;;;1999.90;999.90;;;20.90;59.20;;;;;;5074053;28;20273;-56
2021/03/23 03:34:36;;;;;;;1999.90;999.90;;;20.90;59.40;;;;;;5074096;28;20627;-41
2021/03/23 03:37:03;;;;;;;1999.90;999.90;;;20.80;59.40;;;;;;5074549;28;20576;-51
2021/03/23 03:39:30;;;;;;;1999.90;999.90;;;20.90;59.50;;;;;;5073300;28;20200;-50
2021/03/23 03:41:57;;;;;;;1999.90;999.90;;;20.90;59.20;;;;;;5073910;28;20181;-51
2021/03/23 03:44:24;;;;;;;1999.90;999.90;;;20.90;59.10;;;;;;5073830;28;20624;-50
2021/03/23 03:46:51;;;;;;;1999.90;999.90;;;20.90;59.20;;;;;;5073870;28;20230;-48
2021/03/23 03:49:17;;;;;;;1999.90;999.90;;;20.70;59.30;;;;;;5073691;28;20172;-56
2021/03/23 03:51:44;;;;;;;1999.90;999.90;;;20.80;59.90;;;;;;5073789;28;20682;-55
2021/03/23 03:54:11;;;;;;;1999.90;999.90;;;20.80;59.70;;;;;;5073781;28;20529;-52
2021/03/23 03:56:38;;;;;;;1999.90;999.90;;;20.70;59.40;;;;;;5073525;28;20268;-41
2021/03/23 03:59:05;;;;;;;1999.90;999.90;;;20.70;59.50;;;;;;5073767;28;20180;-56
2021/03/23 04:01:32;;;;;;;1999.90;999.90;;;20.70;60.00;;;;;;5073487;28;20701;-56
2021/03/23 04:03:58;;;;;;;1999.90;999.90;;;20.70;59.80;;;;;;5073661;28;20641;-57
2021/03/23 04:06:25;;;;;;;1999.90;999.90;;;20.70;59.90;;;;;;5073483;28;20168;-55
2021/03/23 04:08:52;;;;;;;1999.90;999.90;;;20.70;60.00;;;;;;5073474;28;20208;-57
2021/03/23 04:11:19;;;;;;;1999.90;999.90;;;20.60;59.70;;;;;;5073440;28;20631;-56
2021/03/23 04:13:46;;;;;;;1999.90;999.90;;;20.60;60.30;;;;;;5073331;28;20173;-57
2021/03/23 04:16:13;;;;;;;1999.90;999.90;;;20.50;60.30;;;;;;5073317;28;20168;-41
2021/03/23 04:18:39;;;;;;;1999.90;999.90;;;20.60;60.30;;;;;;5073196;28;20180;-54
2021/03/23 04:21:06;;;;;;;1999.90;999.90;;;20.60;60.30;;;;;;5073266;28;20200;-56
2021/03/23 04:23:41;;;;;;;1999.90;999.90;;;20.50;60.70;;;;;;5073092;28;20169;-55
2021/03/23 04:26:10;;;;;;;1999.90;999.90;;;20.50;60.50;;;;;;5073269;28;20674;-56
2021/03/23 04:28:40;;;;;;;1999.90;999.90;;;20.40;60.20;;;;;;5073071;28;20684;-48
2021/03/23 04:31:08;;;;;;;1999.90;999.90;;;20.50;60.00;;;;;;5073002;28;20177;-52
2021/03/23 04:33:35;;;;;;;1999.90;999.90;;;20.50;59.70;;;;;;5073012;28;20226;-54
2021/03/23 04:36:06;;;;;;;1999.90;999.90;;;20.60;60.00;;;;;;5072771;28;20168;-46
2021/03/23 04:38:38;;;;;;;1999.90;999.90;;;20.60;60.60;;;;;;5072828;28;20247;-55
2021/03/23 04:41:10;;;;;;;1999.90;999.90;;;20.60;60.60;;;;;;5072713;28;20275;-56
2021/03/23 04:43:43;;;;;;;1999.90;999.90;;;20.60;60.90;;;;;;5073082;28;20153;-55
2021/03/23 04:46:12;;;;;;;1999.90;999.90;;;20.50;60.90;;;;;;5072854;28;20198;-43
2021/03/23 04:48:39;;;;;;;1999.90;999.90;;;20.50;60.80;;;;;;5071577;28;20172;-45
2021/03/23 04:51:09;;;;;;;1999.90;999.90;;;20.50;60.60;;;;;;5071854;28;20165;-53
2021/03/23 04:53:38;;;;;;;1999.90;999.90;;;20.50;59.30;;;;;;5073344;28;20160;-51
2021/03/23 04:56:07;;;;;;;1999.90;999.90;;;20.50;60.60;;;;;;5072502;28;20227;-57
2021/03/23 04:58:34;;;;;;;1999.90;999.90;;;20.50;60.50;;;;;;5072615;28;20511;-57
2021/03/23 05:01:01;;;;;;;1999.90;999.90;;;20.50;60.70;;;;;;5072595;28;20208;-48
2021/03/23 05:03:34;;;;;;;1999.90;999.90;;;20.50;60.40;;;;;;5072553;28;20206;-42
2021/03/23 05:06:06;;;;;;;1999.90;999.90;;;20.60;60.10;;;;;;5072716;28;20164;-57
2021/03/23 05:08:33;;;;;;;1999.90;999.90;;;20.60;59.80;;;;;;5072562;28;20180;-55
2021/03/23 05:11:00;;;;;;;1999.90;999.90;;;20.60;59.70;;;;;;5072512;28;20183;-45
2021/03/23 05:13:27;;;;;;;1999.90;999.90;;;20.70;59.10;;;;;;5072736;28;20226;-55
2021/03/23 05:15:54;;;;;;;1999.90;999.90;;;20.80;59.40;;;;;;5072479;28;20184;-57
2021/03/23 05:18:21;;;;;;;1999.90;999.90;;;20.70;60.00;;;;;;5072556;28;20218;-53
2021/03/23 05:20:48;;;;;;;1999.90;999.90;;;20.70;60.20;;;;;;5072506;28;20204;-57
2021/03/23 05:23:15;;;;;;;1999.90;999.90;;;20.70;61.00;;;;;;5072667;28;20196;-44
2021/03/23 05:25:43;;;;;;;1999.90;999.90;;;20.70;61.40;;;;;;5072526;28;20253;-54
2021/03/23 05:28:10;;;;;;;1999.90;999.90;;;20.70;60.70;;;;;;5072230;28;20165;-48
2021/03/23 05:30:38;;;;;;;1999.90;999.90;;;20.70;60.60;;;;;;5072120;28;20216;-46
2021/03/23 05:33:07;;;;;;;1999.90;999.90;;;20.80;61.10;;;;;;5072044;28;20172;-56
2021/03/23 05:35:34;;;;;;;1999.90;999.90;;;20.80;60.80;;;;;;5072118;28;20211;-57
2021/03/23 05:38:04;;;;;;;1999.90;999.90;;;20.90;60.10;;;;;;5071502;28;20252;-49
2021/03/23 05:40:35;;;;;;;1999.90;999.90;;;21.00;59.60;;;;;;5071703;28;20204;-45
2021/03/23 05:43:17;;;;;;;1999.90;999.90;;;21.20;59.30;;;;;;5071868;28;20261;-56
2021/03/23 05:45:45;;;;;;;1999.90;999.90;;;21.30;59.10;;;;;;5071908;28;20238;-54
2021/03/23 05:48:28;;;;;;;1999.90;999.90;;;21.40;58.90;;;;;;5071526;28;20231;-57
2021/03/23 05:51:20;;;;;;;1999.90;999.90;;;21.60;58.50;;;;;;5071817;28;20175;-53
2021/03/23 05:53:59;;;;;;;1999.90;999.90;;;21.90;57.90;;;;;;5071935;28;20156;-55
2021/03/23 05:56:28;;;;;;;1999.90;999.90;;;22.10;57.10;;;;;;5071051;28;20215;-55
2021/03/23 05:59:05;;;;;;;1999.90;999.90;;;22.30;56.60;;;;;;5070905;28;20173;-57
2021/03/23 06:01:40;;;;;;;1999.90;999.90;;;22.60;55.80;;;;;;5072871;28;20673;-57
2021/03/23 06:04:19;;;;;;;1999.90;999.90;;;22.90;54.30;;;;;;5075063;28;20184;-50
2021/03/23 06:07:13;;;;;;;1999.90;999.90;;;23.00;54.50;;;;;;5069262;28;20240;-54
2021/03/23 06:09:42;;;;;;;1999.90;999.90;;;23.20;53.80;;;;;;5053880;28;20201;-56
2021/03/23 06:12:41;;;;;;;1999.90;999.90;;;23.40;53.70;;;;;;5055477;28;20185;-49
2021/03/23 06:15:27;;;;;;;1999.90;999.90;;;23.50;53.50;;;;;;5055317;28;20156;-56
2021/03/23 06:18:06;;;;;;;1999.90;999.90;;;23.70;52.90;;;;;;5066655;28;20167;-50
2021/03/23 06:20:45;;;;;;;1999.90;999.90;;;23.90;52.60;;;;;;5074820;28;20638;-59
2021/03/23 06:23:14;;;;;;;1999.90;999.90;;;24.10;51.10;;;;;;5074732;28;20623;-58
2021/03/23 06:26:03;;;;;;;1999.90;999.90;;;24.20;51.40;;;;;;5074786;28;20287;-46
2021/03/23 06:28:53;;;;;;;1999.90;999.90;;;24.30;51.50;;;;;;5075065;28;20165;-55
2021/03/23 06:31:50;;;;;;;1999.90;999.90;;;24.50;51.50;;;;;;5075222;28;20169;-54
2021/03/23 06:34:27;;;;;;;1999.90;999.90;;;24.60;50.20;;;;;;5063722;28;20180;-55
2021/03/23 06:36:54;;;;;;;1999.90;999.90;;;24.90;50.20;;;;;;5074391;28;20167;-60
2021/03/23 06:39:22;;;;;;;1999.90;999.90;;;25.10;50.20;;;;;;5074483;28;20181;-51
2021/03/23 06:42:02;;;;;;;1999.90;999.90;;;25.30;49.50;;;;;;5074444;28;20168;-55
2021/03/23 06:44:35;;;;;;;1999.90;999.90;;;25.50;49.00;;;;;;5074506;28;20626;-44
2021/03/23 06:47:04;;;;;;;1999.90;999.90;;;25.80;44.80;;;;;;5074069;28;20627;-50
2021/03/23 06:49:34;;;;;;;1999.90;999.90;;;26.10;44.30;;;;;;5074508;28;20611;-48
2021/03/23 06:52:23;;;;;;;1999.90;999.90;;;26.10;45.20;;;;;;5074261;28;20239;-46
2021/03/23 06:55:20;;;;;;;1999.90;999.90;;;26.10;46.10;;;;;;5074462;28;20165;-47
2021/03/23 06:57:47;;;;;;;1999.90;999.90;;;26.20;46.20;;;;;;5074494;28;20164;-46
2021/03/23 07:00:27;;;;;;;1999.90;999.90;;;26.30;44.80;;;;;;5074160;28;20234;-56
2021/03/23 07:03:31;;;;;;;1999.90;999.90;;;26.50;44.30;;;;;;5070567;28;20164;-50
2021/03/23 07:05:57;;;;;;;1999.90;999.90;;;26.70;42.20;;;;;;5070722;28;20188;-53
2021/03/23 07:08:26;;;;;;;1999.90;999.90;;;27.00;43.60;;;;;;5073084;28;20199;-56
2021/03/23 07:10:53;;;;;;;1999.90;999.90;;;27.10;43.70;;;;;;5073814;28;20176;-56
2021/03/23 07:13:26;;;;;;;1999.90;999.90;;;27.20;43.60;;;;;;5071741;28;20538;-52
2021/03/23 07:16:22;;;;;;;1999.90;999.90;;;27.30;44.40;;;;;;5073920;28;20209;-57
2021/03/23 07:18:54;;;;;;;1999.90;999.90;;;27.30;44.10;;;;;;5069946;28;20651;-47
2021/03/23 07:21:29;;;;;;;1999.90;999.90;;;27.50;44.00;;;;;;5073130;28;20200;-56
2021/03/23 07:24:11;;;;;;;1999.90;999.90;;;27.60;43.00;;;;;;5073635;28;20514;-51
2021/03/23 07:26:42;;;;;;;1999.90;999.90;;;27.80;43.20;;;;;;5072791;28;20163;-52
2021/03/23 07:29:12;;;;;;;1999.90;999.90;;;28.00;42.50;;;;;;5072792;28;20654;-53
2021/03/23 07:31:59;;;;;;;1999.90;999.90;;;28.30;41.50;;;;;;5072791;28;20562;-52
2021/03/23 07:34:51;;;;;;;1999.90;999.90;;;28.50;40.80;;;;;;5071891;28;20638;-60
2021/03/23 07:37:32;;;;;;;1999.90;999.90;;;28.80;39.30;;;;;;5073007;28;20190;-52
2021/03/23 07:40:07;;;;;;;1999.90;999.90;;;29.20;38.10;;;;;;5072589;28;20400;-54
2021/03/23 07:43:18;;;;;;;1999.90;999.90;;;29.50;37.30;;;;;;5069286;28;20160;-45
2021/03/23 07:46:00;;;;;;;1999.90;999.90;;;30.00;36.40;;;;;;5034044;28;20177;-47
2021/03/23 07:49:01;;;;;;;1999.90;999.90;;;30.40;36.00;;;;;;5052651;28;20191;-46
2021/03/23 07:51:45;;;;;;;1999.90;999.90;;;30.90;35.10;;;;;;5071280;28;20164;-47
2021/03/23 07:54:33;;;;;;;1999.90;999.90;;;31.50;34.60;;;;;;5073085;28;20187;-55
2021/03/23 07:57:29;;;;;;;1999.90;999.90;;;32.10;33.60;;;;;;5072340;28;20557;-48
2021/03/23 07:59:58;;;;;;;1999.90;999.90;;;32.70;32.50;;;;;;5073335;28;20576;-49
2021/03/23 08:02:47;;;;;;;1999.90;999.90;;;33.30;30.40;;;;;;5072108;28;20545;-47
2021/03/23 08:05:26;;;;;;;1999.90;999.90;;;34.00;30.20;;;;;;5072735;28;20153;-53
2021/03/23 08:08:17;;;;;;;1999.90;999.90;;;34.60;29.30;;;;;;5073202;28;20161;-57
2021/03/23 08:10:59;;;;;;;1999.90;999.90;;;35.50;28.20;;;;;;5072042;28;20611;-61
2021/03/23 08:13:50;;;;;;;1999.90;999.90;;;35.20;28.00;;;;;;5072403;28;20247;-49
2021/03/23 08:16:54;;;;;;;1999.90;999.90;;;35.90;27.90;;;;;;5071881;28;20311;-49
2021/03/23 08:19:39;;;;;;;1999.90;999.90;;;36.10;25.80;;;;;;5072434;28;20171;-46
2021/03/23 08:22:24;;;;;;;1999.90;999.90;;;36.50;25.00;;;;;;5072337;28;20251;-47
2021/03/23 08:25:17;;;;;;;1999.90;999.90;;;36.80;25.90;;;;;;5071437;28;20558;-53
2021/03/23 08:27:53;;;;;;;1999.90;999.90;;;36.50;25.90;;;;;;5072647;28;20157;-49
2021/03/23 08:30:41;;;;;;;1999.90;999.90;;;36.80;25.70;;;;;;5071645;28;20266;-45
2021/03/23 08:33:32;;;;;;;1999.90;999.90;;;36.90;25.50;;;;;;5072231;28;20161;-46
2021/03/23 08:36:10;;;;;;;1999.90;999.90;;;36.80;25.60;;;;;;5072684;28;20239;-48
2021/03/23 08:38:52;;;;;;;1999.90;999.90;;;37.30;25.10;;;;;;5072066;28;20164;-44
2021/03/23 08:41:42;;;;;;;1999.90;999.90;;;37.50;24.90;;;;;;5072131;28;20228;-46
2021/03/23 08:44:29;;;;;;;1999.90;999.90;;;37.70;24.30;;;;;;5072003;28;20180;-45
2021/03/23 08:46:57;;;;;;;1999.90;999.90;;;37.40;25.00;;;;;;5071396;28;20176;-46
2021/03/23 08:49:24;;;;;;;1999.90;999.90;;;37.60;24.50;;;;;;5072093;28;20169;-49
2021/03/23 08:51:52;;;;;;;1999.90;999.90;;;37.70;24.00;;;;;;5069196;28;20199;-48
2021/03/23 08:54:56;;;;;;;1999.90;999.90;;;37.80;23.90;;;;;;5070528;28;20176;-45
2021/03/23 08:57:22;;;;;;;1999.90;999.90;;;37.90;23.90;;;;;;5010600;28;20202;-45
2021/03/23 08:59:51;;;;;;;1999.90;999.90;;;38.50;23.90;;;;;;5043613;28;20197;-48
2021/03/23 09:02:21;;;;;;;1999.90;999.90;;;38.90;23.40;;;;;;5051971;28;20224;-45
2021/03/23 09:04:57;;;;;;;1999.90;999.90;;;38.60;23.30;;;;;;5051543;28;20161;-53
2021/03/23 09:07:30;;;;;;;1999.90;999.90;;;38.50;23.20;;;;;;5063844;28;20611;-52
2021/03/23 09:09:57;;;;;;;1999.90;999.90;;;38.40;23.70;;;;;;5072328;28;20578;-53
2021/03/23 09:12:44;;;;;;;1999.90;999.90;;;38.20;23.40;;;;;;5064715;28;20546;-42
2021/03/23 09:15:11;;;;;;;1999.90;999.90;;;37.60;23.70;;;;;;5067029;28;20187;-51
2021/03/23 09:17:42;;;;;;;1999.90;999.90;;;36.90;23.70;;;;;;5070850;28;20259;-40
2021/03/23 09:20:41;;;;;;;1999.90;999.90;;;36.50;24.30;;;;;;5051215;28;20680;-40
2021/03/23 09:23:17;;;;;;;1999.90;999.90;;;36.50;24.70;;;;;;5058941;28;20223;-43
2021/03/23 09:25:53;;;;;;;1999.90;999.90;;;37.10;24.30;;;;;;5071021;28;20539;-55
2021/03/23 09:28:33;;;;;;;1999.90;999.90;;;37.00;23.30;;;;;;5071023;28;20269;-48
2021/03/23 09:31:10;;;;;;;1999.90;999.90;;;36.60;23.70;;;;;;5069609;28;20723;-44
2021/03/23 09:33:50;;;;;;;1999.90;999.90;;;35.60;24.70;;;;;;5052657;28;20165;-58
2021/03/23 09:36:38;;;;;;;1999.90;999.90;;;35.80;24.90;;;;;;5066743;28;20574;-59
2021/03/23 09:39:17;;;;;;;1999.90;999.90;;;36.60;24.70;;;;;;5062006;28;20532;-47
2021/03/23 09:42:18;;;;;;;1999.90;999.90;;;37.20;24.30;;;;;;5069464;28;20234;-48
2021/03/23 09:44:56;;;;;;;1999.90;999.90;;;37.70;24.10;;;;;;5067906;28;20258;-44
2021/03/23 09:47:52;;;;;;;1999.90;999.90;;;37.80;23.20;;;;;;5075053;28;20164;-44
2021/03/23 09:50:24;;;;;;;1999.90;999.90;;;38.40;23.40;;;;;;5075232;28;20180;-46
2021/03/23 09:53:08;;;;;;;1999.90;999.90;;;38.10;23.00;;;;;;5075213;28;20165;-47
2021/03/23 09:55:38;;;;;;;1999.90;999.90;;;38.40;23.60;;;;;;5073750;28;20246;-44
2021/03/23 09:58:06;;;;;;;1999.90;999.90;;;38.50;23.10;;;;;;5055786;28;20231;-43
2021/03/23 10:00:34;;;;;;;1999.90;999.90;;;38.70;22.90;;;;;;5064688;28;20299;-55
2021/03/23 10:03:01;;;;;;;1999.90;999.90;;;38.40;22.90;;;;;;5074741;28;20677;-55
2021/03/23 10:05:31;;;;;;;1999.90;999.90;;;39.30;22.40;;;;;;5075171;28;20168;-57
2021/03/23 10:08:14;;;;;;;1999.90;999.90;;;39.10;22.30;;;;;;5074446;28;20602;-54
2021/03/23 10:10:41;;;;;;;1999.90;999.90;;;39.20;22.60;;;;;;5074550;28;20168;-45
2021/03/23 10:13:29;;;;;;;1999.90;999.90;;;38.80;22.20;;;;;;5074537;28;20623;-47
2021/03/23 10:16:00;;;;;;;1999.90;999.90;;;38.40;22.70;;;;;;5074321;28;20176;-55
2021/03/23 10:18:30;;;;;;;1999.90;999.90;;;37.50;23.40;;;;;;5075154;28;20584;-48
2021/03/23 10:21:01;;;;;;;1999.90;999.90;;;38.00;23.70;;;;;;5074336;28;20207;-51
2021/03/23 10:23:30;;;;;;;1999.90;999.90;;;38.60;22.90;;;;;;5063200;28;20161;-60
2021/03/23 10:25:58;;;;;;;1999.90;999.90;;;38.70;22.60;;;;;;5074741;28;20692;-47
2021/03/23 10:28:46;;;;;;;1999.90;999.90;;;39.50;22.50;;;;;;5074916;28;20542;-49
2021/03/23 10:31:15;;;;;;;1999.90;999.90;;;40.00;21.90;;;;;;5074067;28;20160;-52
2021/03/23 10:33:42;;;;;;;1999.90;999.90;;;39.60;21.80;;;;;;5074901;28;20176;-56
2021/03/23 10:36:12;;;;;;;1999.90;999.90;;;39.10;21.80;;;;;;5073451;28;20172;-53
2021/03/23 10:38:47;;;;;;;1999.90;999.90;;;38.30;22.40;;;;;;5074399;28;20164;-47
2021/03/23 10:41:17;;;;;;;1999.90;999.90;;;38.10;22.80;;;;;;5074403;28;20204;-46
2021/03/23 10:43:47;;;;;;;1999.90;999.90;;;37.40;23.30;;;;;;5073527;28;20165;-44
2021/03/23 10:46:28;;;;;;;1999.90;999.90;;;37.40;23.60;;;;;;5074180;28;20179;-42
2021/03/23 10:49:16;;;;;;;1999.90;999.90;;;37.30;23.40;;;;;;5060540;28;20179;-46
2021/03/23 10:51:45;;;;;;;1999.90;999.90;;;36.80;23.70;;;;;;5073565;28;20161;-56
2021/03/23 10:54:12;;;;;;;1999.90;999.90;;;37.10;24.00;;;;;;5072820;28;20172;-48
2021/03/23 10:56:44;;;;;;;1999.90;999.90;;;37.50;23.70;;;;;;5073712;28;20710;-44
2021/03/23 10:59:33;;;;;;;1999.90;999.90;;;37.40;23.50;;;;;;5074033;28;20164;-43
2021/03/23 11:02:27;;;;;;;1999.90;999.90;;;36.90;23.50;;;;;;5074197;28;20535;-53
2021/03/23 11:05:15;;;;;;;1999.90;999.90;;;36.90;24.10;;;;;;5072629;28;20188;-45
2021/03/23 11:07:51;;;;;;;1999.90;999.90;;;36.90;24.00;;;;;;5073841;28;20168;-43
2021/03/23 11:10:21;;;;;;;1999.90;999.90;;;37.40;23.50;;;;;;5073368;28;20254;-48
2021/03/23 11:12:47;;;;;;;1999.90;999.90;;;37.30;23.60;;;;;;5061077;28;20172;-47
2021/03/23 11:15:15;;;;;;;1999.90;999.90;;;37.00;23.70;;;;;;5067066;28;20742;-50
2021/03/23 11:17:50;;;;;;;1999.90;999.90;;;37.00;23.90;;;;;;5068627;28;20180;-42
2021/03/23 11:20:36;;;;;;;1999.90;999.90;;;37.20;23.70;;;;;;5057464;28;20192;-42
2021/03/23 11:23:13;;;;;;;1999.90;999.90;;;37.10;23.90;;;;;;5057401;28;20247;-45
2021/03/23 11:25:40;;;;;;;1999.90;999.90;;;37.00;23.60;;;;;;5072996;28;21035;-47
2021/03/23 11:28:11;;;;;;;1999.90;999.90;;;37.00;23.60;;;;;;5073856;28;20305;-47
2021/03/23 11:30:38;;;;;;;1999.90;999.90;;;37.00;23.70;;;;;;5064519;28;20169;-45
2021/03/23 11:33:05;;;;;;;1999.90;999.90;;;36.70;23.70;;;;;;5068570;28;20218;-45
2021/03/23 11:35:32;;;;;;;1999.90;999.90;;;36.40;23.70;;;;;;5071328;28;20168;-47
2021/03/23 11:37:58;;;;;;;1999.90;999.90;;;36.80;23.60;;;;;;5053560;28;20168;-45
2021/03/23 11:40:25;;;;;;;1999.90;999.90;;;36.70;23.80;;;;;;5055040;28;20223;-51
2021/03/23 11:42:52;;;;;;;1999.90;999.90;;;36.80;23.90;;;;;;5061393;28;20176;-48
2021/03/23 11:45:22;;;;;;;1999.90;999.90;;;37.00;23.60;;;;;;5066066;28;20185;-48
2021/03/23 11:47:57;;;;;;;1999.90;999.90;;;36.70;23.90;;;;;;5071296;28;20267;-50
2021/03/23 11:50:28;;;;;;;1999.90;999.90;;;37.00;23.50;;;;;;5066677;28;20168;-47
2021/03/23 11:52:56;;;;;;;1999.90;999.90;;;37.20;23.40;;;;;;5053834;28;20615;-47
2021/03/23 11:55:30;;;;;;;1999.90;999.90;;;37.00;23.60;;;;;;5057917;28;20311;-48
2021/03/23 11:57:57;;;;;;;1999.90;999.90;;;36.90;23.50;;;;;;5073420;28;20165;-52
2021/03/23 12:00:28;;;;;;;1999.90;999.90;;;37.10;23.30;;;;;;5071311;28;20192;-55
2021/03/23 12:02:56;;;;;;;1999.90;999.90;;;37.20;23.10;;;;;;5072443;28;20547;-47
2021/03/23 12:05:23;;;;;;;1999.90;999.90;;;37.30;23.40;;;;;;5072799;28;20168;-45
2021/03/23 12:08:15;;;;;;;1999.90;999.90;;;37.30;23.40;;;;;;5070824;28;20184;-53
2021/03/23 12:11:03;;;;;;;1999.90;999.90;;;37.20;23.20;;;;;;5065644;28;20526;-58
2021/03/23 12:13:38;;;;;;;1999.90;999.90;;;37.10;23.50;;;;;;5059166;28;20172;-54
2021/03/23 12:16:12;;;;;;;1999.90;999.90;;;37.20;23.40;;;;;;5072513;28;20633;-53
2021/03/23 12:18:46;;;;;;;1999.90;999.90;;;37.30;23.10;;;;;;5058501;28;20244;-45
2021/03/23 12:21:14;;;;;;;1999.90;999.90;;;37.40;23.20;;;;;;5052539;28;20221;-58
2021/03/23 12:23:41;;;;;;;1999.90;999.90;;;37.40;22.90;;;;;;5052330;28;20171;-56
2021/03/23 12:26:08;;;;;;;1999.90;999.90;;;37.20;23.00;;;;;;5053260;28;20170;-57
2021/03/23 12:28:34;;;;;;;1999.90;999.90;;;37.10;23.30;;;;;;5069945;28;20207;-59